sensor_id;sensor_type;location;lat;lon;timestamp;temperature;humidity
42339;DHT22;27993;45.392;10.918;2023-03-01T00:02:16;5.00;99.90
42339;DHT22;27993;45.392;10.918;2023-03-01T00:04:46;5.00;99.90
42339;DHT22;27993;45.392;10.918;2023-03-01T00:07:17;4.80;99.90
42339;DHT22;27993;45.392;10.918;2023-03-01T00:09:47;4.70;99.90
42339;DHT22;27993;45.392;10.918;2023-03-01T00:12:18;4.80;99.90
42339;DHT22;27993;45.392;10.918;2023-03-01T00:14:49;5.00;99.90
42339;DHT22;27993;45.392;10.918;2023-03-01T00:17:19;5.00;99.90
42339;DHT22;27993;45.392;10.918;2023-03-01T00:19:50;5.00;99.90
42339;DHT22;27993;45.392;10.918;2023-03-01T00:22:20;4.90;99.90
42339;DHT22;27993;45.392;10.918;2023-03-01T00:24:51;5.10;99.90
42339;DHT22;27993;45.392;10.918;2023-03-01T00:27:21;5.10;99.90
42339;DHT22;27993;45.392;10.918;2023-03-01T00:29:52;5.20;99.90
42339;DHT22;27993;45.392;10.918;2023-03-01T00:32:22;5.20;99.90
42339;DHT22;27993;45.392;10.918;2023-03-01T00:34:53;5.30;99.90
42339;DHT22;27993;45.392;10.918;2023-03-01T00:37:26;5.30;99.90
42339;DHT22;27993;45.392;10.918;2023-03-01T00:39:57;5.30;99.90
42339;DHT22;27993;45.392;10.918;2023-03-01T00:42:27;5.30;99.90
42339;DHT22;27993;45.392;10.918;2023-03-01T00:44:58;5.30;99.90
42339;DHT22;27993;45.392;10.918;2023-03-01T00:47:29;5.20;99.90
42339;DHT22;27993;45.392;10.918;2023-03-01T00:49:59;5.10;99.90
42339;DHT22;27993;45.392;10.918;2023-03-01T00:52:30;5.00;99.90
42339;DHT22;27993;45.392;10.918;2023-03-01T00:55:01;5.00;99.90
42339;DHT22;27993;45.392;10.918;2023-03-01T00:57:31;5.00;99.90
42339;DHT22;27993;45.392;10.918;2023-03-01T01:00:04;5.10;99.90
42339;DHT22;27993;45.392;10.918;2023-03-01T01:02:35;5.10;99.90
42339;DHT22;27993;45.392;10.918;2023-03-01T01:05:06;5.20;99.90
42339;DHT22;27993;45.392;10.918;2023-03-01T01:07:37;5.20;99.90
42339;DHT22;27993;45.392;10.918;2023-03-01T01:10:08;5.20;99.90
42339;DHT22;27993;45.392;10.918;2023-03-01T01:12:46;5.10;99.90
42339;DHT22;27993;45.392;10.918;2023-03-01T01:15:16;5.10;99.90
42339;DHT22;27993;45.392;10.918;2023-03-01T01:17:47;4.90;99.90
42339;DHT22;27993;45.392;10.918;2023-03-01T01:20:18;4.80;99.90
42339;DHT22;27993;45.392;10.918;2023-03-01T01:22:48;4.70;99.90
42339;DHT22;27993;45.392;10.918;2023-03-01T01:25:19;4.80;99.90
42339;DHT22;27993;45.392;10.918;2023-03-01T01:27:49;4.70;99.90
42339;DHT22;27993;45.392;10.918;2023-03-01T01:30:20;4.70;99.90
42339;DHT22;27993;45.392;10.918;2023-03-01T01:32:51;4.80;99.90
42339;DHT22;27993;45.392;10.918;2023-03-01T01:35:21;4.80;99.90
42339;DHT22;27993;45.392;10.918;2023-03-01T01:37:52;4.70;99.90
42339;DHT22;27993;45.392;10.918;2023-03-01T01:40:22;4.70;99.90
42339;DHT22;27993;45.392;10.918;2023-03-01T01:42:53;4.80;99.90
42339;DHT22;27993;45.392;10.918;2023-03-01T01:45:32;4.80;99.90
42339;DHT22;27993;45.392;10.918;2023-03-01T01:48:07;4.70;99.90
42339;DHT22;27993;45.392;10.918;2023-03-01T01:50:41;4.70;99.90
42339;DHT22;27993;45.392;10.918;2023-03-01T01:53:18;4.80;99.90
42339;DHT22;27993;45.392;10.918;2023-03-01T01:55:54;4.80;99.90
42339;DHT22;27993;45.392;10.918;2023-03-01T01:58:29;4.70;99.90
42339;DHT22;27993;45.392;10.918;2023-03-01T02:01:00;4.60;99.90
42339;DHT22;27993;45.392;10.918;2023-03-01T02:03:33;4.70;99.90
42339;DHT22;27993;45.392;10.918;2023-03-01T02:06:21;4.70;99.90
42339;DHT22;27993;45.392;10.918;2023-03-01T02:08:52;4.60;99.90
42339;DHT22;27993;45.392;10.918;2023-03-01T02:11:23;4.60;99.90
42339;DHT22;27993;45.392;10.918;2023-03-01T02:13:54;4.60;99.90
42339;DHT22;27993;45.392;10.918;2023-03-01T02:16:25;4.50;99.90
42339;DHT22;27993;45.392;10.918;2023-03-01T02:18:57;4.60;99.90
42339;DHT22;27993;45.392;10.918;2023-03-01T02:21:53;4.60;99.90
42339;DHT22;27993;45.392;10.918;2023-03-01T02:26:58;4.60;99.90
42339;DHT22;27993;45.392;10.918;2023-03-01T02:29:29;4.60;99.90
42339;DHT22;27993;45.392;10.918;2023-03-01T02:32:02;4.50;99.90
42339;DHT22;27993;45.392;10.918;2023-03-01T02:34:34;4.30;99.90
42339;DHT22;27993;45.392;10.918;2023-03-01T02:37:10;3.80;99.90
42339;DHT22;27993;45.392;10.918;2023-03-01T02:39:47;3.60;99.90
42339;DHT22;27993;45.392;10.918;2023-03-01T02:42:27;3.70;99.90
42339;DHT22;27993;45.392;10.918;2023-03-01T02:45:00;3.60;99.90
42339;DHT22;27993;45.392;10.918;2023-03-01T02:47:31;3.80;99.90
42339;DHT22;27993;45.392;10.918;2023-03-01T02:50:02;3.80;99.90
42339;DHT22;27993;45.392;10.918;2023-03-01T02:52:54;3.70;99.90
42339;DHT22;27993;45.392;10.918;2023-03-01T02:55:27;3.90;99.90
42339;DHT22;27993;45.392;10.918;2023-03-01T02:58:01;3.90;99.90
42339;DHT22;27993;45.392;10.918;2023-03-01T03:00:40;4.00;99.90
42339;DHT22;27993;45.392;10.918;2023-03-01T03:03:17;4.10;99.90
42339;DHT22;27993;45.392;10.918;2023-03-01T03:05:49;3.90;99.90
42339;DHT22;27993;45.392;10.918;2023-03-01T03:08:20;4.10;99.90
42339;DHT22;27993;45.392;10.918;2023-03-01T03:10:54;4.00;99.90
42339;DHT22;27993;45.392;10.918;2023-03-01T03:13:24;4.10;99.90
42339;DHT22;27993;45.392;10.918;2023-03-01T03:15:58;4.20;99.90
42339;DHT22;27993;45.392;10.918;2023-03-01T03:18:29;4.10;99.90
42339;DHT22;27993;45.392;10.918;2023-03-01T03:20:59;4.20;99.90
42339;DHT22;27993;45.392;10.918;2023-03-01T03:23:30;4.30;99.90
42339;DHT22;27993;45.392;10.918;2023-03-01T03:26:02;4.40;99.90
42339;DHT22;27993;45.392;10.918;2023-03-01T03:28:35;4.50;99.90
42339;DHT22;27993;45.392;10.918;2023-03-01T03:31:07;4.40;99.90
42339;DHT22;27993;45.392;10.918;2023-03-01T03:33:38;4.50;99.90
42339;DHT22;27993;45.392;10.918;2023-03-01T03:36:08;4.60;99.90
42339;DHT22;27993;45.392;10.918;2023-03-01T03:38:44;4.60;99.90
42339;DHT22;27993;45.392;10.918;2023-03-01T03:41:16;4.60;99.90
42339;DHT22;27993;45.392;10.918;2023-03-01T03:43:47;4.70;99.90
42339;DHT22;27993;45.392;10.918;2023-03-01T03:46:19;4.80;99.90
42339;DHT22;27993;45.392;10.918;2023-03-01T03:48:49;5.00;99.90
42339;DHT22;27993;45.392;10.918;2023-03-01T03:51:20;5.00;99.90
42339;DHT22;27993;45.392;10.918;2023-03-01T03:53:53;4.90;99.90
42339;DHT22;27993;45.392;10.918;2023-03-01T03:56:23;5.00;99.90
42339;DHT22;27993;45.392;10.918;2023-03-01T03:58:56;5.10;99.90
42339;DHT22;27993;45.392;10.918;2023-03-01T04:01:26;5.10;99.90
42339;DHT22;27993;45.392;10.918;2023-03-01T04:03:57;4.90;99.90
42339;DHT22;27993;45.392;10.918;2023-03-01T04:06:33;5.00;99.90
42339;DHT22;27993;45.392;10.918;2023-03-01T04:09:04;4.80;99.90
42339;DHT22;27993;45.392;10.918;2023-03-01T04:11:35;4.90;99.90
42339;DHT22;27993;45.392;10.918;2023-03-01T04:14:05;4.70;99.90
42339;DHT22;27993;45.392;10.918;2023-03-01T04:16:36;4.70;99.90
42339;DHT22;27993;45.392;10.918;2023-03-01T04:19:06;4.60;99.90
42339;DHT22;27993;45.392;10.918;2023-03-01T04:21:37;4.30;99.90
42339;DHT22;27993;45.392;10.918;2023-03-01T04:24:08;4.50;99.90
42339;DHT22;27993;45.392;10.918;2023-03-01T04:26:39;4.20;99.90
42339;DHT22;27993;45.392;10.918;2023-03-01T04:29:10;3.70;99.90
42339;DHT22;27993;45.392;10.918;2023-03-01T04:31:41;3.70;99.90
42339;DHT22;27993;45.392;10.918;2023-03-01T04:34:11;3.80;99.90
42339;DHT22;27993;45.392;10.918;2023-03-01T04:36:44;3.70;99.90
42339;DHT22;27993;45.392;10.918;2023-03-01T04:39:15;3.80;99.90
42339;DHT22;27993;45.392;10.918;2023-03-01T04:41:45;3.60;99.90
42339;DHT22;27993;45.392;10.918;2023-03-01T04:44:16;3.70;99.90
42339;DHT22;27993;45.392;10.918;2023-03-01T04:46:49;3.60;99.90
42339;DHT22;27993;45.392;10.918;2023-03-01T04:49:20;3.50;99.90
42339;DHT22;27993;45.392;10.918;2023-03-01T04:51:50;3.30;99.90
42339;DHT22;27993;45.392;10.918;2023-03-01T04:54:21;3.30;99.90
42339;DHT22;27993;45.392;10.918;2023-03-01T04:56:51;3.40;99.90
42339;DHT22;27993;45.392;10.918;2023-03-01T04:59:22;3.50;99.90
42339;DHT22;27993;45.392;10.918;2023-03-01T05:01:54;3.40;99.90
42339;DHT22;27993;45.392;10.918;2023-03-01T05:04:26;3.70;99.90
42339;DHT22;27993;45.392;10.918;2023-03-01T05:06:56;3.70;99.90
42339;DHT22;27993;45.392;10.918;2023-03-01T05:09:29;3.70;99.90
42339;DHT22;27993;45.392;10.918;2023-03-01T05:11:59;3.70;99.90
42339;DHT22;27993;45.392;10.918;2023-03-01T05:14:30;3.70;99.90
42339;DHT22;27993;45.392;10.918;2023-03-01T05:17:00;4.00;99.90
42339;DHT22;27993;45.392;10.918;2023-03-01T05:19:34;4.10;99.90
42339;DHT22;27993;45.392;10.918;2023-03-01T05:22:05;4.20;99.90
42339;DHT22;27993;45.392;10.918;2023-03-01T05:24:35;4.20;99.90
42339;DHT22;27993;45.392;10.918;2023-03-01T05:27:06;4.40;99.90
42339;DHT22;27993;45.392;10.918;2023-03-01T05:29:36;4.40;99.90
42339;DHT22;27993;45.392;10.918;2023-03-01T05:32:09;4.80;99.90
42339;DHT22;27993;45.392;10.918;2023-03-01T05:34:44;4.80;99.90
42339;DHT22;27993;45.392;10.918;2023-03-01T05:37:16;4.80;99.90
42339;DHT22;27993;45.392;10.918;2023-03-01T05:39:47;4.80;99.90
42339;DHT22;27993;45.392;10.918;2023-03-01T05:42:20;4.70;99.90
42339;DHT22;27993;45.392;10.918;2023-03-01T05:44:51;4.40;99.90
42339;DHT22;27993;45.392;10.918;2023-03-01T05:47:21;4.20;99.90
42339;DHT22;27993;45.392;10.918;2023-03-01T05:49:52;4.20;99.90
42339;DHT22;27993;45.392;10.918;2023-03-01T05:52:23;4.10;99.90
42339;DHT22;27993;45.392;10.918;2023-03-01T05:54:53;4.20;99.90
42339;DHT22;27993;45.392;10.918;2023-03-01T05:57:24;4.30;99.90
42339;DHT22;27993;45.392;10.918;2023-03-01T05:59:54;4.50;99.90
42339;DHT22;27993;45.392;10.918;2023-03-01T06:02:25;4.40;99.90
42339;DHT22;27993;45.392;10.918;2023-03-01T06:04:55;4.40;99.90
42339;DHT22;27993;45.392;10.918;2023-03-01T06:07:26;4.40;99.90
42339;DHT22;27993;45.392;10.918;2023-03-01T06:09:57;4.40;99.90
42339;DHT22;27993;45.392;10.918;2023-03-01T06:12:33;4.50;99.90
42339;DHT22;27993;45.392;10.918;2023-03-01T06:15:06;4.60;99.90
42339;DHT22;27993;45.392;10.918;2023-03-01T06:17:38;4.80;99.90
42339;DHT22;27993;45.392;10.918;2023-03-01T06:20:18;4.80;99.90
42339;DHT22;27993;45.392;10.918;2023-03-01T06:22:50;4.90;99.90
42339;DHT22;27993;45.392;10.918;2023-03-01T06:25:22;4.90;99.90
42339;DHT22;27993;45.392;10.918;2023-03-01T06:27:53;5.00;99.90
42339;DHT22;27993;45.392;10.918;2023-03-01T06:30:25;5.00;99.90
42339;DHT22;27993;45.392;10.918;2023-03-01T06:32:56;4.90;99.90
42339;DHT22;27993;45.392;10.918;2023-03-01T06:35:31;5.10;99.90
42339;DHT22;27993;45.392;10.918;2023-03-01T06:38:03;5.10;99.90
42339;DHT22;27993;45.392;10.918;2023-03-01T06:40:33;5.20;99.90
42339;DHT22;27993;45.392;10.918;2023-03-01T06:43:05;5.20;99.90
42339;DHT22;27993;45.392;10.918;2023-03-01T06:45:37;5.30;99.90
42339;DHT22;27993;45.392;10.918;2023-03-01T06:48:08;5.30;99.90
42339;DHT22;27993;45.392;10.918;2023-03-01T06:50:38;5.30;99.90
42339;DHT22;27993;45.392;10.918;2023-03-01T06:53:09;5.30;99.90
42339;DHT22;27993;45.392;10.918;2023-03-01T06:55:39;5.50;99.90
42339;DHT22;27993;45.392;10.918;2023-03-01T06:58:10;5.70;99.90
42339;DHT22;27993;45.392;10.918;2023-03-01T07:00:41;5.60;99.90
42339;DHT22;27993;45.392;10.918;2023-03-01T07:03:13;5.80;99.90
42339;DHT22;27993;45.392;10.918;2023-03-01T07:05:43;5.90;99.90
42339;DHT22;27993;45.392;10.918;2023-03-01T07:08:15;5.90;99.90
42339;DHT22;27993;45.392;10.918;2023-03-01T07:10:45;6.10;99.90
42339;DHT22;27993;45.392;10.918;2023-03-01T07:13:16;6.00;99.90
42339;DHT22;27993;45.392;10.918;2023-03-01T07:15:46;6.00;99.90
42339;DHT22;27993;45.392;10.918;2023-03-01T07:18:17;6.10;99.90
42339;DHT22;27993;45.392;10.918;2023-03-01T07:20:47;6.30;99.90
42339;DHT22;27993;45.392;10.918;2023-03-01T07:23:18;6.40;99.90
42339;DHT22;27993;45.392;10.918;2023-03-01T07:25:55;6.40;99.90
42339;DHT22;27993;45.392;10.918;2023-03-01T07:28:26;6.40;99.90
42339;DHT22;27993;45.392;10.918;2023-03-01T07:31:01;6.50;99.90
42339;DHT22;27993;45.392;10.918;2023-03-01T07:33:32;6.50;99.90
42339;DHT22;27993;45.392;10.918;2023-03-01T07:36:04;6.80;99.90
42339;DHT22;27993;45.392;10.918;2023-03-01T07:38:34;6.70;99.90
42339;DHT22;27993;45.392;10.918;2023-03-01T07:41:05;6.80;99.90
42339;DHT22;27993;45.392;10.918;2023-03-01T07:43:36;6.90;99.90
42339;DHT22;27993;45.392;10.918;2023-03-01T07:46:07;7.00;99.90
42339;DHT22;27993;45.392;10.918;2023-03-01T07:48:37;7.10;99.90
42339;DHT22;27993;45.392;10.918;2023-03-01T07:51:09;7.20;99.90
42339;DHT22;27993;45.392;10.918;2023-03-01T07:53:40;7.30;99.90
42339;DHT22;27993;45.392;10.918;2023-03-01T07:56:12;7.40;99.90
42339;DHT22;27993;45.392;10.918;2023-03-01T07:58:44;7.40;99.90
42339;DHT22;27993;45.392;10.918;2023-03-01T08:01:17;7.40;99.90
42339;DHT22;27993;45.392;10.918;2023-03-01T08:03:48;7.50;99.90
42339;DHT22;27993;45.392;10.918;2023-03-01T08:06:19;7.50;99.90
42339;DHT22;27993;45.392;10.918;2023-03-01T08:08:49;7.60;99.90
42339;DHT22;27993;45.392;10.918;2023-03-01T08:11:20;7.60;99.90
42339;DHT22;27993;45.392;10.918;2023-03-01T08:13:51;7.70;99.90
42339;DHT22;27993;45.392;10.918;2023-03-01T08:16:21;7.90;99.90
42339;DHT22;27993;45.392;10.918;2023-03-01T08:18:52;8.10;99.90
42339;DHT22;27993;45.392;10.918;2023-03-01T08:21:22;8.30;99.90
42339;DHT22;27993;45.392;10.918;2023-03-01T08:23:53;8.40;99.90
42339;DHT22;27993;45.392;10.918;2023-03-01T08:26:23;8.70;99.90
42339;DHT22;27993;45.392;10.918;2023-03-01T08:28:54;9.10;99.90
42339;DHT22;27993;45.392;10.918;2023-03-01T08:31:35;9.70;99.90
42339;DHT22;27993;45.392;10.918;2023-03-01T08:34:09;10.00;99.90
42339;DHT22;27993;45.392;10.918;2023-03-01T08:36:41;9.60;99.90
42339;DHT22;27993;45.392;10.918;2023-03-01T08:39:14;9.80;99.90
42339;DHT22;27993;45.392;10.918;2023-03-01T08:41:46;9.60;99.90
42339;DHT22;27993;45.392;10.918;2023-03-01T08:44:16;9.40;99.90
42339;DHT22;27993;45.392;10.918;2023-03-01T08:46:47;9.10;99.90
42339;DHT22;27993;45.392;10.918;2023-03-01T08:49:20;9.00;99.90
42339;DHT22;27993;45.392;10.918;2023-03-01T08:51:51;9.00;99.90
42339;DHT22;27993;45.392;10.918;2023-03-01T08:54:22;9.00;99.90
42339;DHT22;27993;45.392;10.918;2023-03-01T08:56:52;8.80;99.90
42339;DHT22;27993;45.392;10.918;2023-03-01T08:59:23;8.80;99.90
42339;DHT22;27993;45.392;10.918;2023-03-01T09:01:55;8.80;99.90
42339;DHT22;27993;45.392;10.918;2023-03-01T09:04:26;8.80;99.90
42339;DHT22;27993;45.392;10.918;2023-03-01T09:06:56;8.90;99.90
42339;DHT22;27993;45.392;10.918;2023-03-01T09:09:27;8.90;99.90
42339;DHT22;27993;45.392;10.918;2023-03-01T09:11:57;9.00;99.90
42339;DHT22;27993;45.392;10.918;2023-03-01T09:14:28;9.00;99.90
42339;DHT22;27993;45.392;10.918;2023-03-01T09:16:59;9.00;99.90
42339;DHT22;27993;45.392;10.918;2023-03-01T09:19:33;8.90;99.90
42339;DHT22;27993;45.392;10.918;2023-03-01T09:22:04;8.80;99.90
42339;DHT22;27993;45.392;10.918;2023-03-01T09:24:35;8.80;99.90
42339;DHT22;27993;45.392;10.918;2023-03-01T09:27:06;8.80;99.90
42339;DHT22;27993;45.392;10.918;2023-03-01T09:29:38;8.70;99.90
42339;DHT22;27993;45.392;10.918;2023-03-01T09:32:10;8.70;99.90
42339;DHT22;27993;45.392;10.918;2023-03-01T09:34:40;8.70;99.90
42339;DHT22;27993;45.392;10.918;2023-03-01T09:37:34;8.60;99.90
42339;DHT22;27993;45.392;10.918;2023-03-01T09:40:08;8.60;99.90
42339;DHT22;27993;45.392;10.918;2023-03-01T09:43:00;8.60;99.90
42339;DHT22;27993;45.392;10.918;2023-03-01T09:45:38;8.60;99.90
42339;DHT22;27993;45.392;10.918;2023-03-01T09:48:17;8.60;99.90
42339;DHT22;27993;45.392;10.918;2023-03-01T09:50:49;8.70;99.90
42339;DHT22;27993;45.392;10.918;2023-03-01T09:53:23;8.70;99.90
42339;DHT22;27993;45.392;10.918;2023-03-01T09:58:54;9.00;99.90
42339;DHT22;27993;45.392;10.918;2023-03-01T10:04:28;9.20;99.90
42339;DHT22;27993;45.392;10.918;2023-03-01T10:09:34;9.30;99.90
42339;DHT22;27993;45.392;10.918;2023-03-01T10:12:18;9.30;99.90
42339;DHT22;27993;45.392;10.918;2023-03-01T10:20:45;9.20;99.90
42339;DHT22;27993;45.392;10.918;2023-03-01T10:23:17;9.10;99.90
42339;DHT22;27993;45.392;10.918;2023-03-01T10:26:12;9.10;99.90
42339;DHT22;27993;45.392;10.918;2023-03-01T10:36:48;9.30;99.90
42339;DHT22;27993;45.392;10.918;2023-03-01T10:39:23;9.40;99.90
42339;DHT22;27993;45.392;10.918;2023-03-01T10:42:00;9.40;99.90
42339;DHT22;27993;45.392;10.918;2023-03-01T10:47:04;9.50;99.90
42339;DHT22;27993;45.392;10.918;2023-03-01T10:49:35;9.50;99.90
42339;DHT22;27993;45.392;10.918;2023-03-01T10:52:18;9.50;99.90
42339;DHT22;27993;45.392;10.918;2023-03-01T10:54:55;9.40;99.90
42339;DHT22;27993;45.392;10.918;2023-03-01T10:57:36;9.50;99.90
42339;DHT22;27993;45.392;10.918;2023-03-01T11:03:02;9.60;99.90
42339;DHT22;27993;45.392;10.918;2023-03-01T11:05:33;9.80;99.90
42339;DHT22;27993;45.392;10.918;2023-03-01T11:08:04;9.90;99.90
42339;DHT22;27993;45.392;10.918;2023-03-01T11:10:36;10.30;99.90
42339;DHT22;27993;45.392;10.918;2023-03-01T11:13:18;10.10;99.90
42339;DHT22;27993;45.392;10.918;2023-03-01T11:16:05;9.90;99.90
42339;DHT22;27993;45.392;10.918;2023-03-01T11:18:36;9.90;99.90
42339;DHT22;27993;45.392;10.918;2023-03-01T11:21:07;9.90;99.90
42339;DHT22;27993;45.392;10.918;2023-03-01T11:23:39;9.80;99.90
42339;DHT22;27993;45.392;10.918;2023-03-01T11:26:13;10.00;99.90
42339;DHT22;27993;45.392;10.918;2023-03-01T11:28:50;10.00;99.90
42339;DHT22;27993;45.392;10.918;2023-03-01T11:31:23;10.00;99.90
42339;DHT22;27993;45.392;10.918;2023-03-01T11:34:12;10.00;99.90
42339;DHT22;27993;45.392;10.918;2023-03-01T11:36:52;9.80;99.90
42339;DHT22;27993;45.392;10.918;2023-03-01T11:43:01;9.20;99.90
42339;DHT22;27993;45.392;10.918;2023-03-01T11:46:16;9.40;99.90
42339;DHT22;27993;45.392;10.918;2023-03-01T11:54:55;9.60;99.90
42339;DHT22;27993;45.392;10.918;2023-03-01T11:57:55;9.60;99.90
42339;DHT22;27993;45.392;10.918;2023-03-01T12:03:32;9.70;99.90
42339;DHT22;27993;45.392;10.918;2023-03-01T12:11:30;9.40;99.90
42339;DHT22;27993;45.392;10.918;2023-03-01T12:14:12;9.50;99.90
42339;DHT22;27993;45.392;10.918;2023-03-01T12:17:06;9.60;99.90
42339;DHT22;27993;45.392;10.918;2023-03-01T12:22:23;9.60;99.90
42339;DHT22;27993;45.392;10.918;2023-03-01T12:35:54;9.20;99.90
42339;DHT22;27993;45.392;10.918;2023-03-01T12:47:19;9.00;99.90
42339;DHT22;27993;45.392;10.918;2023-03-01T12:50:03;9.10;99.90
42339;DHT22;27993;45.392;10.918;2023-03-01T12:52:50;9.20;99.90
42339;DHT22;27993;45.392;10.918;2023-03-01T12:55:32;9.20;99.90
42339;DHT22;27993;45.392;10.918;2023-03-01T12:58:15;9.10;99.90
42339;DHT22;27993;45.392;10.918;2023-03-01T13:03:53;9.20;99.90
42339;DHT22;27993;45.392;10.918;2023-03-01T13:12:46;9.30;99.90
42339;DHT22;27993;45.392;10.918;2023-03-01T13:17:59;9.20;99.90
42339;DHT22;27993;45.392;10.918;2023-03-01T13:33:49;9.30;99.90
42339;DHT22;27993;45.392;10.918;2023-03-01T13:39:29;9.50;99.90
42339;DHT22;27993;45.392;10.918;2023-03-01T13:42:02;9.40;99.90
42339;DHT22;27993;45.392;10.918;2023-03-01T13:44:37;9.40;99.90
42339;DHT22;27993;45.392;10.918;2023-03-01T13:49:48;8.70;99.90
42339;DHT22;27993;45.392;10.918;2023-03-01T13:52:39;8.70;99.90
42339;DHT22;27993;45.392;10.918;2023-03-01T13:55:18;8.50;99.90
42339;DHT22;27993;45.392;10.918;2023-03-01T13:57:56;8.30;99.90
42339;DHT22;27993;45.392;10.918;2023-03-01T14:00:37;8.20;99.90
42339;DHT22;27993;45.392;10.918;2023-03-01T14:03:15;8.30;99.90
42339;DHT22;27993;45.392;10.918;2023-03-01T14:06:13;8.20;99.90
42339;DHT22;27993;45.392;10.918;2023-03-01T14:08:46;8.30;99.90
42339;DHT22;27993;45.392;10.918;2023-03-01T14:11:33;8.60;99.90
42339;DHT22;27993;45.392;10.918;2023-03-01T14:19:45;8.00;99.90
42339;DHT22;27993;45.392;10.918;2023-03-01T14:22:23;7.90;99.90
42339;DHT22;27993;45.392;10.918;2023-03-01T14:24:57;7.90;99.90
42339;DHT22;27993;45.392;10.918;2023-03-01T14:27:39;8.00;99.90
42339;DHT22;27993;45.392;10.918;2023-03-01T14:33:01;7.60;99.90
42339;DHT22;27993;45.392;10.918;2023-03-01T14:35:35;7.60;99.90
42339;DHT22;27993;45.392;10.918;2023-03-01T14:38:05;7.60;99.90
42339;DHT22;27993;45.392;10.918;2023-03-01T14:40:37;7.40;99.90
42339;DHT22;27993;45.392;10.918;2023-03-01T14:43:12;7.30;99.90
42339;DHT22;27993;45.392;10.918;2023-03-01T14:45:48;7.40;99.90
42339;DHT22;27993;45.392;10.918;2023-03-01T14:48:19;7.20;99.90
42339;DHT22;27993;45.392;10.918;2023-03-01T14:50:50;7.30;99.90
42339;DHT22;27993;45.392;10.918;2023-03-01T14:53:26;7.40;99.90
42339;DHT22;27993;45.392;10.918;2023-03-01T14:56:01;7.20;99.90
42339;DHT22;27993;45.392;10.918;2023-03-01T14:58:33;7.30;99.90
42339;DHT22;27993;45.392;10.918;2023-03-01T15:01:04;7.50;99.90
42339;DHT22;27993;45.392;10.918;2023-03-01T15:03:38;7.30;99.90
42339;DHT22;27993;45.392;10.918;2023-03-01T15:06:11;7.30;99.90
42339;DHT22;27993;45.392;10.918;2023-03-01T15:08:50;7.20;99.90
42339;DHT22;27993;45.392;10.918;2023-03-01T15:11:29;7.10;99.90
42339;DHT22;27993;45.392;10.918;2023-03-01T15:14:00;7.10;99.90
42339;DHT22;27993;45.392;10.918;2023-03-01T15:16:32;9.60;99.90
42339;DHT22;27993;45.392;10.918;2023-03-01T15:19:06;10.60;99.90
42339;DHT22;27993;45.392;10.918;2023-03-01T15:21:38;9.30;99.90
42339;DHT22;27993;45.392;10.918;2023-03-01T15:26:58;8.50;99.90
42339;DHT22;27993;45.392;10.918;2023-03-01T15:29:33;8.30;99.90
42339;DHT22;27993;45.392;10.918;2023-03-01T15:32:44;8.30;99.90
42339;DHT22;27993;45.392;10.918;2023-03-01T15:35:44;8.10;99.90
42339;DHT22;27993;45.392;10.918;2023-03-01T15:38:33;8.00;99.90
42339;DHT22;27993;45.392;10.918;2023-03-01T15:41:21;8.00;99.90
42339;DHT22;27993;45.392;10.918;2023-03-01T15:43:53;7.90;99.90
42339;DHT22;27993;45.392;10.918;2023-03-01T15:46:32;7.70;99.90
42339;DHT22;27993;45.392;10.918;2023-03-01T15:49:18;7.70;99.90
42339;DHT22;27993;45.392;10.918;2023-03-01T15:51:53;7.70;99.90
42339;DHT22;27993;45.392;10.918;2023-03-01T15:54:26;7.60;99.90
42339;DHT22;27993;45.392;10.918;2023-03-01T15:56:57;7.70;99.90
42339;DHT22;27993;45.392;10.918;2023-03-01T15:59:28;7.60;99.90
42339;DHT22;27993;45.392;10.918;2023-03-01T16:01:58;7.60;99.90
42339;DHT22;27993;45.392;10.918;2023-03-01T16:04:29;7.60;99.90
42339;DHT22;27993;45.392;10.918;2023-03-01T16:06:59;7.60;99.90
42339;DHT22;27993;45.392;10.918;2023-03-01T16:09:31;7.50;99.90
42339;DHT22;27993;45.392;10.918;2023-03-01T16:12:02;7.40;99.90
42339;DHT22;27993;45.392;10.918;2023-03-01T16:14:32;7.30;99.90
42339;DHT22;27993;45.392;10.918;2023-03-01T16:17:03;7.30;99.90
42339;DHT22;27993;45.392;10.918;2023-03-01T16:19:34;7.30;99.90
42339;DHT22;27993;45.392;10.918;2023-03-01T16:22:04;7.20;99.90
42339;DHT22;27993;45.392;10.918;2023-03-01T16:24:35;7.20;99.90
42339;DHT22;27993;45.392;10.918;2023-03-01T16:27:06;7.00;99.90
42339;DHT22;27993;45.392;10.918;2023-03-01T16:29:37;7.00;99.90
42339;DHT22;27993;45.392;10.918;2023-03-01T16:32:07;7.00;99.90
42339;DHT22;27993;45.392;10.918;2023-03-01T16:34:38;6.90;99.90
42339;DHT22;27993;45.392;10.918;2023-03-01T16:37:08;6.90;99.90
42339;DHT22;27993;45.392;10.918;2023-03-01T16:39:39;6.80;99.90
42339;DHT22;27993;45.392;10.918;2023-03-01T16:42:09;6.80;99.90
42339;DHT22;27993;45.392;10.918;2023-03-01T16:44:40;6.80;99.90
42339;DHT22;27993;45.392;10.918;2023-03-01T16:47:11;6.80;99.90
42339;DHT22;27993;45.392;10.918;2023-03-01T16:49:41;6.80;99.90
42339;DHT22;27993;45.392;10.918;2023-03-01T16:52:12;6.70;99.90
42339;DHT22;27993;45.392;10.918;2023-03-01T16:54:43;6.80;99.90
42339;DHT22;27993;45.392;10.918;2023-03-01T16:57:14;6.70;99.90
42339;DHT22;27993;45.392;10.918;2023-03-01T16:59:44;6.70;99.90
42339;DHT22;27993;45.392;10.918;2023-03-01T17:02:15;6.60;99.90
42339;DHT22;27993;45.392;10.918;2023-03-01T17:04:54;6.60;99.90
42339;DHT22;27993;45.392;10.918;2023-03-01T17:07:25;6.60;99.90
42339;DHT22;27993;45.392;10.918;2023-03-01T17:09:56;6.60;99.90
42339;DHT22;27993;45.392;10.918;2023-03-01T17:12:26;6.60;99.90
42339;DHT22;27993;45.392;10.918;2023-03-01T17:14:58;6.60;99.90
42339;DHT22;27993;45.392;10.918;2023-03-01T17:17:28;6.50;99.90
42339;DHT22;27993;45.392;10.918;2023-03-01T17:19:59;6.50;99.90
42339;DHT22;27993;45.392;10.918;2023-03-01T17:22:29;6.50;99.90
42339;DHT22;27993;45.392;10.918;2023-03-01T17:25:00;6.50;99.90
42339;DHT22;27993;45.392;10.918;2023-03-01T17:27:31;6.40;99.90
42339;DHT22;27993;45.392;10.918;2023-03-01T17:30:06;6.50;99.90
42339;DHT22;27993;45.392;10.918;2023-03-01T17:32:37;6.50;99.90
42339;DHT22;27993;45.392;10.918;2023-03-01T17:35:09;6.40;99.90
42339;DHT22;27993;45.392;10.918;2023-03-01T17:37:41;6.40;99.90
42339;DHT22;27993;45.392;10.918;2023-03-01T17:40:15;6.40;99.90
42339;DHT22;27993;45.392;10.918;2023-03-01T17:42:46;6.20;99.90
42339;DHT22;27993;45.392;10.918;2023-03-01T17:45:16;6.30;99.90
42339;DHT22;27993;45.392;10.918;2023-03-01T17:47:47;6.20;99.90
42339;DHT22;27993;45.392;10.918;2023-03-01T17:50:18;6.20;99.90
42339;DHT22;27993;45.392;10.918;2023-03-01T17:52:48;6.20;99.90
42339;DHT22;27993;45.392;10.918;2023-03-01T17:55:19;6.20;99.90
42339;DHT22;27993;45.392;10.918;2023-03-01T17:57:50;6.20;99.90
42339;DHT22;27993;45.392;10.918;2023-03-01T18:00:21;6.30;99.90
42339;DHT22;27993;45.392;10.918;2023-03-01T18:02:52;6.30;99.90